createdAt,value
2023-05-06T00:00:51.624Z,95138.00
2023-05-06T00:01:51.626Z,95136.00
2023-05-06T00:02:51.720Z,95134.00
2023-05-06T00:03:51.827Z,95134.00
2023-05-06T00:04:51.751Z,95131.00
2023-05-06T00:05:51.712Z,95133.00
2023-05-06T00:06:51.708Z,95129.00
2023-05-06T00:07:51.716Z,95131.00
2023-05-06T00:08:51.695Z,95131.00
2023-05-06T00:09:51.731Z,95131.00
2023-05-06T00:10:51.721Z,95131.00
2023-05-06T00:11:51.698Z,95131.00
2023-05-06T00:12:52.227Z,95131.00
2023-05-06T00:13:51.752Z,95127.00
2023-05-06T00:14:51.761Z,95129.00
2023-05-06T00:15:51.764Z,95129.00
2023-05-06T00:16:51.780Z,95127.00
2023-05-06T00:17:52.190Z,95125.00
2023-05-06T00:18:51.800Z,95125.00
2023-05-06T00:19:51.803Z,95125.00
2023-05-06T00:20:51.817Z,95127.00
2023-05-06T00:21:51.821Z,95123.00
2023-05-06T00:22:51.833Z,95121.00
2023-05-06T00:23:51.826Z,95121.00
2023-05-06T00:24:51.899Z,95121.00
2023-05-06T00:25:51.849Z,95121.00
2023-05-06T00:26:51.842Z,95117.00
2023-05-06T00:27:51.872Z,95115.00
2023-05-06T00:28:51.880Z,95115.00
2023-05-06T00:29:51.903Z,95115.00
2023-05-06T00:30:51.894Z,95117.00
2023-05-06T00:31:51.958Z,95117.00
2023-05-06T00:32:51.955Z,95115.00
2023-05-06T00:33:51.922Z,95113.00
2023-05-06T00:34:51.959Z,95111.00
2023-05-06T00:35:51.980Z,95111.00
2023-05-06T00:36:51.970Z,95111.00
2023-05-06T00:37:51.978Z,95111.00
2023-05-06T00:38:51.998Z,95111.00
2023-05-06T00:39:51.986Z,95111.00
2023-05-06T00:40:52.077Z,95109.00
2023-05-06T00:41:52.010Z,95107.00
2023-05-06T00:42:52.058Z,95107.00
2023-05-06T00:43:52.011Z,95105.00
2023-05-06T00:44:52.072Z,95103.00
2023-05-06T00:45:52.090Z,95103.00
2023-05-06T00:46:52.076Z,95107.00
2023-05-06T00:47:52.174Z,95105.00
2023-05-06T00:48:52.171Z,95103.00
2023-05-06T00:49:52.150Z,95105.00
2023-05-06T00:50:52.133Z,95101.00
2023-05-06T00:51:52.166Z,95103.00
2023-05-06T00:52:52.194Z,95099.00
2023-05-06T00:53:52.193Z,95099.00
2023-05-06T00:54:52.208Z,95097.00
2023-05-06T00:55:52.220Z,95095.00
2023-05-06T00:56:52.217Z,95095.00
2023-05-06T00:57:52.253Z,95095.00
2023-05-06T00:58:52.232Z,95093.00
2023-05-06T00:59:52.273Z,95095.00
2023-05-06T01:00:52.391Z,95095.00
2023-05-06T01:01:52.290Z,95095.00
2023-05-06T01:02:52.410Z,95095.00
2023-05-06T01:03:52.537Z,95095.00
2023-05-06T01:04:52.342Z,95095.00
2023-05-06T01:05:52.382Z,95095.00
2023-05-06T01:06:52.325Z,95095.00
2023-05-06T01:07:52.359Z,95093.00
2023-05-06T01:08:52.365Z,95089.00
2023-05-06T01:09:52.413Z,95087.00
2023-05-06T01:10:52.428Z,95087.00
2023-05-06T01:11:52.421Z,95087.00
2023-05-06T01:12:52.509Z,95086.00
2023-05-06T01:13:52.475Z,95086.00
2023-05-06T01:14:52.490Z,95087.00
2023-05-06T01:15:52.510Z,95089.00
2023-05-06T01:16:52.615Z,95087.00
2023-05-06T01:17:52.579Z,95087.00
2023-05-06T01:18:52.552Z,95087.00
2023-05-06T01:19:52.564Z,95089.00
2023-05-06T01:20:52.554Z,95089.00
2023-05-06T01:21:52.556Z,95089.00
2023-05-06T01:22:52.563Z,95089.00
2023-05-06T01:23:52.578Z,95089.00
2023-05-06T01:24:52.626Z,95089.00
2023-05-06T01:25:52.647Z,95086.00
2023-05-06T01:26:52.636Z,95087.00
2023-05-06T01:27:52.633Z,95087.00
2023-05-06T01:28:52.749Z,95089.00
2023-05-06T01:29:52.682Z,95087.00
2023-05-06T01:30:52.770Z,95086.00
2023-05-06T01:31:52.715Z,95086.00
2023-05-06T01:32:52.807Z,95089.00
2023-05-06T01:33:52.753Z,95086.00
2023-05-06T01:34:52.742Z,95086.00
2023-05-06T01:35:52.749Z,95086.00
2023-05-06T01:36:52.774Z,95089.00
2023-05-06T01:37:52.820Z,95087.00
2023-05-06T01:38:52.817Z,95089.00
2023-05-06T01:39:52.833Z,95089.00
2023-05-06T01:40:52.863Z,95089.00
2023-05-06T01:41:52.878Z,95087.00
2023-05-06T01:42:53.303Z,95089.00
2023-05-06T01:43:52.886Z,95089.00
2023-05-06T01:44:53.000Z,95091.00
2023-05-06T01:45:52.945Z,95089.00
2023-05-06T01:46:52.937Z,95091.00
2023-05-06T01:47:53.009Z,95091.00
2023-05-06T01:48:53.007Z,95091.00
2023-05-06T01:49:53.004Z,95091.00
2023-05-06T01:50:52.998Z,95093.00
2023-05-06T01:51:53.066Z,95093.00
2023-05-06T01:52:53.024Z,95093.00
2023-05-06T01:53:53.055Z,95093.00
2023-05-06T01:54:53.064Z,95089.00
2023-05-06T01:55:53.060Z,95091.00
2023-05-06T01:56:53.096Z,95091.00
2023-05-06T01:57:53.156Z,95091.00
2023-05-06T01:58:53.159Z,95097.00
2023-05-06T01:59:53.136Z,95095.00
2023-05-06T02:00:53.217Z,95093.00
2023-05-06T02:01:53.189Z,95093.00
2023-05-06T02:02:53.393Z,95093.00
2023-05-06T02:03:53.462Z,95093.00
2023-05-06T02:04:53.206Z,95093.00
2023-05-06T02:05:53.206Z,95093.00
2023-05-06T02:06:53.237Z,95093.00
2023-05-06T02:07:53.255Z,95093.00
2023-05-06T02:08:53.308Z,95091.00
2023-05-06T02:09:53.284Z,95093.00
2023-05-06T02:10:53.315Z,95093.00
2023-05-06T02:11:53.320Z,95091.00
2023-05-06T02:12:53.393Z,95091.00
2023-05-06T02:13:53.337Z,95091.00
2023-05-06T02:14:53.382Z,95089.00
2023-05-06T02:15:53.394Z,95087.00
2023-05-06T02:16:53.474Z,95087.00
2023-05-06T02:17:53.435Z,95086.00
2023-05-06T02:18:53.437Z,95086.00
2023-05-06T02:19:53.469Z,95084.00
2023-05-06T02:20:53.488Z,95087.00
2023-05-06T02:21:53.517Z,95086.00
2023-05-06T02:22:53.738Z,95087.00
2023-05-06T02:23:53.549Z,95087.00
2023-05-06T02:24:53.522Z,95087.00
2023-05-06T02:25:53.554Z,95087.00
2023-05-06T02:26:53.607Z,95089.00
2023-05-06T02:27:53.569Z,95086.00
2023-05-06T02:28:53.627Z,95086.00
2023-05-06T02:29:53.608Z,95086.00
2023-05-06T02:30:53.662Z,95087.00
2023-05-06T02:31:53.709Z,95086.00
2023-05-06T02:32:53.838Z,95084.00
2023-05-06T02:33:53.715Z,95082.00
2023-05-06T02:34:53.754Z,95082.00
2023-05-06T02:35:53.779Z,95082.00
2023-05-06T02:36:53.760Z,95080.00
2023-05-06T02:37:53.809Z,95080.00
2023-05-06T02:38:53.826Z,95082.00
2023-05-06T02:39:53.809Z,95080.00
2023-05-06T02:40:53.881Z,95078.00
2023-05-06T02:41:53.886Z,95076.00
2023-05-06T02:42:53.997Z,95076.00
2023-05-06T02:43:53.929Z,95074.00
2023-05-06T02:44:53.930Z,95072.00
2023-05-06T02:45:54.006Z,95070.00
2023-05-06T02:46:54.015Z,95072.00
2023-05-06T02:47:54.058Z,95072.00
2023-05-06T02:48:54.000Z,95070.00
2023-05-06T02:49:54.028Z,95074.00
2023-05-06T02:50:54.048Z,95078.00
2023-05-06T02:51:54.046Z,95076.00
2023-05-06T02:52:54.074Z,95076.00
2023-05-06T02:53:54.100Z,95080.00
2023-05-06T02:54:54.122Z,95078.00
2023-05-06T02:55:54.141Z,95072.00
2023-05-06T02:56:54.132Z,95076.00
2023-05-06T02:57:54.206Z,95072.00
2023-05-06T02:58:54.204Z,95072.00
2023-05-06T02:59:54.269Z,95076.00
2023-05-06T03:00:54.273Z,95072.00
2023-05-06T03:01:54.276Z,95070.00
2023-05-06T03:02:54.294Z,95074.00
2023-05-06T03:03:54.296Z,95072.00
2023-05-06T03:04:54.365Z,95072.00
2023-05-06T03:05:54.326Z,95074.00
2023-05-06T03:06:54.321Z,95072.00
2023-05-06T03:07:54.361Z,95072.00
2023-05-06T03:08:54.364Z,95072.00
2023-05-06T03:09:54.368Z,95074.00
2023-05-06T03:10:54.434Z,95074.00
2023-05-06T03:11:54.431Z,95074.00
2023-05-06T03:12:54.473Z,95074.00
2023-05-06T03:13:54.463Z,95072.00
2023-05-06T03:14:54.516Z,95070.00
2023-05-06T03:15:54.541Z,95072.00
2023-05-06T03:16:54.560Z,95072.00
2023-05-06T03:17:54.557Z,95074.00
2023-05-06T03:18:54.605Z,95074.00
2023-05-06T03:19:54.584Z,95074.00
2023-05-06T03:20:54.652Z,95076.00
2023-05-06T03:21:54.629Z,95074.00
2023-05-06T03:22:54.652Z,95074.00
2023-05-06T03:23:54.643Z,95072.00
2023-05-06T03:24:54.674Z,95072.00
2023-05-06T03:25:54.660Z,95072.00
2023-05-06T03:26:54.666Z,95070.00
2023-05-06T03:27:54.704Z,95068.00
2023-05-06T03:28:54.770Z,95070.00
2023-05-06T03:29:54.793Z,95068.00
2023-05-06T03:30:54.769Z,95070.00
2023-05-06T03:31:54.837Z,95070.00
2023-05-06T03:32:54.972Z,95068.00
2023-05-06T03:33:54.817Z,95068.00
2023-05-06T03:34:54.918Z,95070.00
2023-05-06T03:35:54.866Z,95070.00
2023-05-06T03:36:55.023Z,95068.00
2023-05-06T03:37:54.889Z,95066.00
2023-05-06T03:38:54.906Z,95064.00
2023-05-06T03:39:54.961Z,95062.00
2023-05-06T03:40:54.958Z,95060.00
2023-05-06T03:41:54.995Z,95060.00
2023-05-06T03:42:55.019Z,95062.00
2023-05-06T03:43:54.987Z,95062.00
2023-05-06T03:44:55.048Z,95062.00
2023-05-06T03:45:55.098Z,95062.00
2023-05-06T03:46:55.114Z,95062.00
2023-05-06T03:47:55.153Z,95062.00
2023-05-06T03:48:55.112Z,95062.00
2023-05-06T03:49:55.148Z,95064.00
2023-05-06T03:50:55.143Z,95064.00
2023-05-06T03:51:55.185Z,95068.00
2023-05-06T03:52:55.277Z,95070.00
2023-05-06T03:53:55.236Z,95074.00
2023-05-06T03:54:55.285Z,95074.00
2023-05-06T03:55:55.268Z,95072.00
2023-05-06T03:56:55.319Z,95070.00
2023-05-06T03:57:55.390Z,95068.00
2023-05-06T03:58:55.376Z,95070.00
2023-05-06T03:59:55.360Z,95068.00
2023-05-06T04:00:55.426Z,95070.00
2023-05-06T04:01:55.474Z,95072.00
2023-05-06T04:02:55.537Z,95074.00
2023-05-06T04:03:55.481Z,95076.00
2023-05-06T04:04:55.520Z,95078.00
2023-05-06T04:05:55.522Z,95080.00
2023-05-06T04:06:55.555Z,95082.00
2023-05-06T04:07:55.608Z,95086.00
2023-05-06T04:08:55.583Z,95084.00
2023-05-06T04:09:55.617Z,95084.00
2023-05-06T04:10:55.617Z,95089.00
2023-05-06T04:11:55.649Z,95089.00
2023-05-06T04:12:55.756Z,95089.00
2023-05-06T04:13:55.669Z,95093.00
2023-05-06T04:14:55.752Z,95097.00
2023-05-06T04:15:55.765Z,95099.00
2023-05-06T04:16:55.733Z,95105.00
2023-05-06T04:17:55.819Z,95109.00
2023-05-06T04:18:55.804Z,95109.00
2023-05-06T04:19:55.815Z,95113.00
2023-05-06T04:20:55.849Z,95115.00
2023-05-06T04:21:55.872Z,95115.00
2023-05-06T04:22:55.907Z,95115.00
2023-05-06T04:23:55.914Z,95115.00
2023-05-06T04:24:56.082Z,95111.00
2023-05-06T04:25:55.951Z,95111.00
2023-05-06T04:26:55.973Z,95111.00
2023-05-06T04:27:56.052Z,95109.00
2023-05-06T04:28:56.053Z,95111.00
2023-05-06T04:29:56.079Z,95111.00
2023-05-06T04:30:56.098Z,95109.00
2023-05-06T04:31:56.124Z,95109.00
2023-05-06T04:32:56.193Z,95105.00
2023-05-06T04:33:56.145Z,95101.00
2023-05-06T04:34:56.175Z,95101.00
2023-05-06T04:35:56.227Z,95101.00
2023-05-06T04:36:56.253Z,95103.00
2023-05-06T04:37:56.280Z,95103.00
2023-05-06T04:38:56.270Z,95105.00
2023-05-06T04:39:56.312Z,95103.00
2023-05-06T04:40:56.408Z,95105.00
2023-05-06T04:41:56.356Z,95107.00
2023-05-06T04:42:56.431Z,95107.00
2023-05-06T04:43:56.392Z,95109.00
2023-05-06T04:44:56.420Z,95109.00
2023-05-06T04:45:56.480Z,95107.00
2023-05-06T04:46:56.493Z,95109.00
2023-05-06T04:47:56.585Z,95111.00
2023-05-06T04:48:56.504Z,95115.00
2023-05-06T04:49:56.533Z,95115.00
2023-05-06T04:50:56.614Z,95113.00
2023-05-06T04:51:56.634Z,95109.00
2023-05-06T04:52:56.666Z,95111.00
2023-05-06T04:53:56.658Z,95109.00
2023-05-06T04:54:56.647Z,95107.00
2023-05-06T04:55:56.721Z,95101.00
2023-05-06T04:56:56.825Z,95107.00
2023-05-06T04:57:56.728Z,95107.00
2023-05-06T04:58:56.723Z,95103.00
2023-05-06T04:59:56.863Z,95109.00
2023-05-06T05:00:56.797Z,95103.00
2023-05-06T05:01:56.828Z,95111.00
2023-05-06T05:02:56.967Z,95113.00
2023-05-06T05:03:56.846Z,95107.00
2023-05-06T05:04:56.865Z,95115.00
2023-05-06T05:05:56.886Z,95111.00
2023-05-06T05:06:56.938Z,95117.00
2023-05-06T05:07:56.976Z,95117.00
2023-05-06T05:08:57.144Z,95117.00
2023-05-06T05:09:57.028Z,95119.00
2023-05-06T05:10:57.049Z,95115.00
2023-05-06T05:11:57.016Z,95113.00
2023-05-06T05:12:57.121Z,95113.00
2023-05-06T05:13:57.784Z,95117.00
2023-05-06T05:14:57.102Z,95117.00
2023-05-06T05:15:57.143Z,95111.00
2023-05-06T05:16:57.244Z,95109.00
2023-05-06T05:17:57.241Z,95115.00
2023-05-06T05:18:57.199Z,95107.00
2023-05-06T05:19:57.307Z,95111.00
2023-05-06T05:20:57.265Z,95113.00
2023-05-06T05:21:57.289Z,95117.00
2023-05-06T05:22:57.364Z,95119.00
2023-05-06T05:23:57.374Z,95123.00
2023-05-06T05:24:57.389Z,95123.00
2023-05-06T05:25:57.438Z,95131.00
2023-05-06T05:26:57.450Z,95125.00
2023-05-06T05:27:57.461Z,95125.00
2023-05-06T05:28:57.597Z,95129.00
2023-05-06T05:29:57.517Z,95123.00
2023-05-06T05:30:57.600Z,95121.00
2023-05-06T05:31:57.582Z,95121.00
2023-05-06T05:32:57.633Z,95123.00
2023-05-06T05:33:57.642Z,95119.00
2023-05-06T05:34:57.652Z,95121.00
2023-05-06T05:35:57.655Z,95121.00
2023-05-06T05:36:57.707Z,95117.00
2023-05-06T05:37:57.719Z,95119.00
2023-05-06T05:38:57.781Z,95117.00
2023-05-06T05:39:57.781Z,95119.00
2023-05-06T05:40:57.806Z,95119.00
2023-05-06T05:41:57.812Z,95121.00
2023-05-06T05:42:57.868Z,95119.00
2023-05-06T05:43:57.886Z,95121.00
2023-05-06T05:44:57.904Z,95119.00
2023-05-06T05:45:57.967Z,95119.00
2023-05-06T05:46:57.935Z,95117.00
2023-05-06T05:47:58.034Z,95117.00
2023-05-06T05:48:57.995Z,95111.00
2023-05-06T05:49:58.059Z,95107.00
2023-05-06T05:50:58.081Z,95105.00
2023-05-06T05:51:58.065Z,95105.00
2023-05-06T05:52:58.138Z,95109.00
2023-05-06T05:53:58.152Z,95115.00
2023-05-06T05:54:58.164Z,95119.00
2023-05-06T05:55:58.178Z,95119.00
2023-05-06T05:56:58.210Z,95113.00
2023-05-06T05:57:58.250Z,95107.00
2023-05-06T05:58:58.299Z,95103.00
2023-05-06T05:59:58.280Z,95103.00
2023-05-06T06:00:58.552Z,95101.00
2023-05-06T06:01:58.304Z,95103.00
2023-05-06T06:02:58.450Z,95101.00
2023-05-06T06:03:58.484Z,95103.00
2023-05-06T06:04:58.474Z,95103.00
2023-05-06T06:05:58.431Z,95107.00
2023-05-06T06:06:58.464Z,95107.00
2023-05-06T06:07:58.482Z,95109.00
2023-05-06T06:08:58.493Z,95107.00
2023-05-06T06:09:58.502Z,95107.00
2023-05-06T06:10:58.540Z,95105.00
2023-05-06T06:11:58.561Z,95107.00
2023-05-06T06:12:58.697Z,95103.00
2023-05-06T06:13:58.588Z,95103.00
2023-05-06T06:14:58.648Z,95103.00
2023-05-06T06:15:58.731Z,95105.00
2023-05-06T06:16:58.751Z,95109.00
2023-05-06T06:17:58.781Z,95109.00
2023-05-06T06:18:58.733Z,95109.00
2023-05-06T06:19:58.782Z,95111.00
2023-05-06T06:20:58.775Z,95113.00
2023-05-06T06:21:58.929Z,95113.00
2023-05-06T06:22:58.856Z,95119.00
2023-05-06T06:23:58.872Z,95113.00
2023-05-06T06:24:58.918Z,95115.00
2023-05-06T06:25:58.919Z,95121.00
2023-05-06T06:26:58.977Z,95115.00
2023-05-06T06:27:59.006Z,95115.00
2023-05-06T06:28:59.018Z,95119.00
2023-05-06T06:29:59.052Z,95109.00
2023-05-06T06:30:59.052Z,95109.00
2023-05-06T06:31:59.135Z,95105.00
2023-05-06T06:32:59.273Z,95105.00
2023-05-06T06:33:59.127Z,95101.00
2023-05-06T06:34:59.182Z,95101.00
2023-05-06T06:35:59.208Z,95099.00
2023-05-06T06:36:59.237Z,95103.00
2023-05-06T06:37:59.326Z,95103.00
2023-05-06T06:38:59.293Z,95103.00
2023-05-06T06:39:59.347Z,95103.00
2023-05-06T06:40:59.390Z,95103.00
2023-05-06T06:41:59.384Z,95099.00
2023-05-06T06:42:59.460Z,95099.00
2023-05-06T06:43:59.481Z,95097.00
2023-05-06T06:44:59.483Z,95097.00
2023-05-06T06:45:59.591Z,95099.00
2023-05-06T06:46:59.520Z,95099.00
2023-05-06T06:47:59.643Z,95099.00
2023-05-06T06:48:59.571Z,95097.00
2023-05-06T06:49:59.619Z,95099.00
2023-05-06T06:50:59.621Z,95097.00
2023-05-06T06:51:59.653Z,95099.00
2023-05-06T06:52:59.730Z,95099.00
2023-05-06T06:53:59.703Z,95099.00
2023-05-06T06:54:59.741Z,95097.00
2023-05-06T06:55:59.768Z,95097.00
2023-05-06T06:56:59.788Z,95097.00
2023-05-06T06:57:59.888Z,95097.00
2023-05-06T06:58:59.838Z,95101.00
2023-05-06T06:59:59.840Z,95095.00
2023-05-06T07:00:59.939Z,95101.00
2023-05-06T07:01:59.882Z,95099.00
2023-05-06T07:02:59.992Z,95101.00
2023-05-06T07:04:00.003Z,95099.00
2023-05-06T07:05:00.053Z,95099.00
2023-05-06T07:06:00.004Z,95097.00
2023-05-06T07:07:00.042Z,95097.00
2023-05-06T07:08:00.048Z,95097.00
2023-05-06T07:09:00.055Z,95093.00
2023-05-06T07:10:00.103Z,95093.00
2023-05-06T07:11:00.128Z,95091.00
2023-05-06T07:12:00.138Z,95091.00
2023-05-06T07:13:00.249Z,95091.00
2023-05-06T07:14:00.181Z,95091.00
2023-05-06T07:15:00.211Z,95091.00
2023-05-06T07:16:00.232Z,95091.00
2023-05-06T07:17:00.316Z,95089.00
2023-05-06T07:18:00.372Z,95087.00
2023-05-06T07:19:00.302Z,95089.00
2023-05-06T07:20:00.294Z,95086.00
2023-05-06T07:21:00.409Z,95089.00
2023-05-06T07:22:00.389Z,95087.00
2023-05-06T07:23:00.397Z,95087.00
2023-05-06T07:24:00.385Z,95087.00
2023-05-06T07:25:00.403Z,95087.00
2023-05-06T07:26:00.468Z,95086.00
2023-05-06T07:27:00.523Z,95086.00
2023-05-06T07:28:00.531Z,95087.00
2023-05-06T07:29:00.530Z,95086.00
2023-05-06T07:30:00.585Z,95087.00
2023-05-06T07:31:00.651Z,95087.00
2023-05-06T07:32:00.626Z,95084.00
2023-05-06T07:33:00.709Z,95084.00
2023-05-06T07:34:00.652Z,95086.00
2023-05-06T07:35:00.725Z,95084.00
2023-05-06T07:36:00.721Z,95086.00
2023-05-06T07:37:00.754Z,95086.00
2023-05-06T07:38:00.749Z,95087.00
2023-05-06T07:39:00.774Z,95086.00
2023-05-06T07:40:00.821Z,95084.00
2023-05-06T07:41:00.840Z,95084.00
2023-05-06T07:42:00.840Z,95084.00
2023-05-06T07:43:00.870Z,95084.00
2023-05-06T07:44:00.918Z,95080.00
2023-05-06T07:45:00.933Z,95084.00
2023-05-06T07:46:01.005Z,95082.00
2023-05-06T07:47:01.075Z,95080.00
2023-05-06T07:48:01.017Z,95080.00
2023-05-06T07:49:01.029Z,95078.00
2023-05-06T07:50:01.031Z,95080.00
2023-05-06T07:51:01.037Z,95080.00
2023-05-06T07:52:01.056Z,95080.00
2023-05-06T07:53:01.215Z,95078.00
2023-05-06T07:54:01.064Z,95078.00
2023-05-06T07:55:01.084Z,95076.00
2023-05-06T07:56:01.092Z,95078.00
2023-05-06T07:57:01.112Z,95076.00
2023-05-06T07:58:01.171Z,95076.00
2023-05-06T07:59:01.143Z,95076.00
2023-05-06T08:00:01.143Z,95076.00
2023-05-06T08:01:01.203Z,95072.00
2023-05-06T08:02:01.333Z,95072.00
2023-05-06T08:03:01.380Z,95074.00
2023-05-06T08:04:01.304Z,95074.00
2023-05-06T08:05:01.215Z,95074.00
2023-05-06T08:06:01.269Z,95074.00
2023-05-06T08:07:01.276Z,95074.00
2023-05-06T08:08:01.281Z,95072.00
2023-05-06T08:09:01.337Z,95076.00
2023-05-06T08:10:01.311Z,95074.00
2023-05-06T08:11:01.341Z,95074.00
2023-05-06T08:12:01.338Z,95072.00
2023-05-06T08:13:01.392Z,95070.00
2023-05-06T08:14:01.364Z,95068.00
2023-05-06T08:15:01.367Z,95072.00
2023-05-06T08:16:01.403Z,95074.00
2023-05-06T08:17:01.384Z,95076.00
2023-05-06T08:18:10.256Z,95076.00
2023-05-06T08:19:02.428Z,95076.00
2023-05-06T08:20:01.410Z,95078.00
2023-05-06T08:21:01.375Z,95076.00
2023-05-06T08:22:01.329Z,95078.00
2023-05-06T08:23:01.352Z,95078.00
2023-05-06T08:24:01.402Z,95080.00
2023-05-06T08:25:01.402Z,95080.00
2023-05-06T08:26:01.325Z,95078.00
2023-05-06T08:27:01.330Z,95080.00
2023-05-06T08:28:01.338Z,95078.00
2023-05-06T08:29:01.332Z,95084.00
2023-05-06T08:30:01.309Z,95086.00
2023-05-06T08:31:01.329Z,95084.00
2023-05-06T08:32:01.389Z,95084.00
2023-05-06T08:33:01.363Z,95087.00
2023-05-06T08:34:01.287Z,95084.00
2023-05-06T08:35:01.308Z,95086.00
2023-05-06T08:36:01.286Z,95086.00
2023-05-06T08:37:01.286Z,95087.00
2023-05-06T08:38:01.247Z,95086.00
2023-05-06T08:39:01.390Z,95084.00
2023-05-06T08:40:01.268Z,95086.00
2023-05-06T08:41:01.302Z,95084.00
2023-05-06T08:42:01.260Z,95087.00
2023-05-06T08:43:01.230Z,95089.00
2023-05-06T08:44:01.257Z,95089.00
2023-05-06T08:45:01.182Z,95087.00
2023-05-06T08:46:01.230Z,95091.00
2023-05-06T08:47:01.249Z,95091.00
2023-05-06T08:48:01.191Z,95091.00
2023-05-06T08:49:01.191Z,95091.00
2023-05-06T08:50:01.176Z,95093.00
2023-05-06T08:51:01.177Z,95093.00
2023-05-06T08:52:01.180Z,95091.00
2023-05-06T08:53:01.163Z,95091.00
2023-05-06T08:54:01.151Z,95093.00
2023-05-06T08:55:01.269Z,95087.00
2023-05-06T08:56:01.144Z,95089.00
2023-05-06T08:57:01.111Z,95087.00
2023-05-06T08:58:01.123Z,95091.00
2023-05-06T08:59:01.111Z,95089.00
2023-05-06T09:00:01.154Z,95095.00
2023-05-06T09:01:01.140Z,95093.00
2023-05-06T09:02:01.135Z,95093.00
2023-05-06T09:03:01.154Z,95093.00
2023-05-06T09:04:01.096Z,95095.00
2023-05-06T09:05:01.081Z,95099.00
2023-05-06T09:06:01.094Z,95099.00
2023-05-06T09:07:01.029Z,95101.00
2023-05-06T09:08:01.089Z,95101.00
2023-05-06T09:09:01.116Z,95101.00
2023-05-06T09:10:01.079Z,95103.00
2023-05-06T09:11:01.131Z,95101.00
2023-05-06T09:12:01.082Z,95103.00
2023-05-06T09:13:01.101Z,95099.00
2023-05-06T09:14:01.098Z,95101.00
2023-05-06T09:15:01.139Z,95099.00
2023-05-06T09:16:01.119Z,95099.00
2023-05-06T09:17:01.235Z,95099.00
2023-05-06T09:18:01.211Z,95099.00
2023-05-06T09:19:01.124Z,95101.00
2023-05-06T09:20:01.126Z,95101.00
2023-05-06T09:21:01.141Z,95099.00
2023-05-06T09:22:01.121Z,95097.00
2023-05-06T09:23:01.150Z,95097.00
2023-05-06T09:24:01.146Z,95093.00
2023-05-06T09:25:01.140Z,95093.00
2023-05-06T09:26:01.144Z,95091.00
2023-05-06T09:27:01.175Z,95091.00
2023-05-06T09:28:01.171Z,95091.00
2023-05-06T09:29:01.267Z,95089.00
2023-05-06T09:30:01.184Z,95089.00
2023-05-06T09:31:01.264Z,95087.00
2023-05-06T09:32:01.148Z,95086.00
2023-05-06T09:33:01.181Z,95084.00
2023-05-06T09:34:01.159Z,95082.00
2023-05-06T09:35:01.183Z,95084.00
2023-05-06T09:36:01.193Z,95086.00
2023-05-06T09:37:01.220Z,95086.00
2023-05-06T09:38:01.222Z,95086.00
2023-05-06T09:39:01.419Z,95086.00
2023-05-06T09:40:01.291Z,95084.00
2023-05-06T09:41:01.221Z,95087.00
2023-05-06T09:42:01.296Z,95087.00
2023-05-06T09:43:01.261Z,95087.00
2023-05-06T09:44:01.294Z,95087.00
2023-05-06T09:45:02.157Z,95086.00
2023-05-06T09:46:01.313Z,95086.00
2023-05-06T09:47:01.296Z,95082.00
2023-05-06T09:48:01.379Z,95087.00
2023-05-06T09:49:01.319Z,95084.00
2023-05-06T09:50:01.322Z,95086.00
2023-05-06T09:51:01.410Z,95086.00
2023-05-06T09:52:01.336Z,95082.00
2023-05-06T09:53:01.355Z,95084.00
2023-05-06T09:54:01.357Z,95084.00
2023-05-06T09:55:01.358Z,95084.00
2023-05-06T09:56:01.346Z,95078.00
2023-05-06T09:57:01.371Z,95080.00
2023-05-06T09:58:01.384Z,95084.00
2023-05-06T09:59:01.524Z,95082.00
2023-05-06T10:00:01.379Z,95084.00
2023-05-06T10:01:01.529Z,95078.00
2023-05-06T10:02:01.458Z,95084.00
2023-05-06T10:03:01.554Z,95084.00
2023-05-06T10:04:01.488Z,95086.00
2023-05-06T10:05:01.741Z,95080.00
2023-05-06T10:06:01.437Z,95078.00
2023-05-06T10:07:01.441Z,95080.00
2023-05-06T10:08:01.465Z,95072.00
2023-05-06T10:09:01.533Z,95078.00
2023-05-06T10:10:01.473Z,95076.00
2023-05-06T10:11:01.500Z,95068.00
2023-05-06T10:12:01.480Z,95074.00
2023-05-06T10:13:01.538Z,95070.00
2023-05-06T10:14:01.493Z,95070.00
2023-05-06T10:15:01.538Z,95072.00
2023-05-06T10:16:01.479Z,95070.00
2023-05-06T10:17:01.564Z,95068.00
2023-05-06T10:18:01.590Z,95066.00
2023-05-06T10:19:01.493Z,95066.00
2023-05-06T10:20:01.528Z,95058.00
2023-05-06T10:21:01.517Z,95058.00
2023-05-06T10:22:01.763Z,95056.00
2023-05-06T10:23:01.526Z,95056.00
2023-05-06T10:24:01.522Z,95056.00
2023-05-06T10:25:01.502Z,95056.00
2023-05-06T10:26:01.508Z,95056.00
2023-05-06T10:27:01.502Z,95056.00
2023-05-06T10:28:01.545Z,95052.00
2023-05-06T10:29:01.520Z,95054.00
2023-05-06T10:30:01.518Z,95050.00
2023-05-06T10:31:01.577Z,95050.00
2023-05-06T10:32:01.554Z,95048.00
2023-05-06T10:33:01.623Z,95046.00
2023-05-06T10:34:01.545Z,95048.00
2023-05-06T10:35:01.529Z,95044.00
2023-05-06T10:36:01.531Z,95044.00
2023-05-06T10:37:01.545Z,95044.00
2023-05-06T10:38:01.529Z,95046.00
2023-05-06T10:39:01.922Z,95044.00
2023-05-06T10:40:01.524Z,95046.00
2023-05-06T10:41:01.540Z,95044.00
2023-05-06T10:42:01.538Z,95042.00
2023-05-06T10:43:01.517Z,95044.00
2023-05-06T10:44:01.922Z,95039.00
2023-05-06T10:45:01.544Z,95042.00
2023-05-06T10:46:01.564Z,95039.00
2023-05-06T10:47:01.567Z,95039.00
2023-05-06T10:48:01.644Z,95039.00
2023-05-06T10:49:01.645Z,95039.00
2023-05-06T10:50:01.543Z,95035.00
2023-05-06T10:51:01.545Z,95031.00
2023-05-06T10:52:01.576Z,95035.00
2023-05-06T10:53:01.586Z,95031.00
2023-05-06T10:54:01.552Z,95029.00
2023-05-06T10:55:01.567Z,95029.00
2023-05-06T10:56:01.582Z,95027.00
2023-05-06T10:57:01.577Z,95029.00
2023-05-06T10:58:01.592Z,95029.00
2023-05-06T10:59:01.611Z,95027.00
2023-05-06T11:00:01.614Z,95023.00
2023-05-06T11:01:01.652Z,95027.00
2023-05-06T11:02:01.657Z,95025.00
2023-05-06T11:03:01.752Z,95025.00
2023-05-06T11:04:01.937Z,95025.00
2023-05-06T11:05:01.719Z,95025.00
2023-05-06T11:06:01.625Z,95021.00
2023-05-06T11:07:01.608Z,95021.00
2023-05-06T11:08:01.657Z,95021.00
2023-05-06T11:09:01.636Z,95019.00
2023-05-06T11:10:01.677Z,95019.00
2023-05-06T11:11:01.646Z,95019.00
2023-05-06T11:12:01.689Z,95021.00
2023-05-06T11:13:01.655Z,95019.00
2023-05-06T11:14:01.674Z,95017.00
2023-05-06T11:15:01.697Z,95017.00
2023-05-06T11:16:01.671Z,95015.00
2023-05-06T11:17:01.852Z,95015.00
2023-05-06T11:18:01.719Z,95013.00
2023-05-06T11:19:01.687Z,95015.00
2023-05-06T11:20:01.707Z,95015.00
2023-05-06T11:21:01.768Z,95017.00
2023-05-06T11:22:01.762Z,95017.00
2023-05-06T11:23:01.695Z,95011.00
2023-05-06T11:24:01.926Z,95015.00
2023-05-06T11:25:01.745Z,95015.00
2023-05-06T11:26:01.719Z,95017.00
2023-05-06T11:27:01.722Z,95015.00
2023-05-06T11:28:01.722Z,95015.00
2023-05-06T11:29:01.771Z,95015.00
2023-05-06T11:30:01.743Z,95015.00
2023-05-06T11:31:01.727Z,95011.00
2023-05-06T11:32:01.730Z,95013.00
2023-05-06T11:33:03.901Z,95013.00
2023-05-06T11:34:01.758Z,95013.00
2023-05-06T11:35:01.715Z,95013.00
2023-05-06T11:36:01.712Z,95013.00
2023-05-06T11:37:01.773Z,95013.00
2023-05-06T11:38:01.771Z,95013.00
2023-05-06T11:39:04.097Z,95013.00
2023-05-06T11:40:01.687Z,95013.00
2023-05-06T11:41:01.694Z,95011.00
2023-05-06T11:42:01.655Z,95011.00
2023-05-06T11:43:01.655Z,95011.00
2023-05-06T11:44:01.678Z,95013.00
2023-05-06T11:45:02.466Z,95011.00